Latest Weather Observations for Croker Island Airport

IDD60801

Issued at 6:35 pm CST Tuesday 22 July 2014 (issued every 30 minutes, with the page automatically refreshed every 10 minutes)

About weather observations | Map of weather stations | Latest weather observations for NT | Other Formats
Station Details ID: 014308 Name: CROKER ISLAND AIRPORT Lat: -11.16 Lon: 132.48 Height: 9.2 m
Data from the previous 72 hours. | See also: Recent months for locations in Northern Territory
Date/Time
CST
Temp
°C
App
Temp
°C
Dew
Point
Rel
Hum
%
Delta-T
°C
Wind Press
QNH
hPa
Press
MSL
hPa
Rain
since 9 am
mm
Dir
 
Spd
km/h
Gust
km/h
Spd
kts
Gust
kts
22/06:30pm 24.1 24.2 19.2 74 3.1 E 17 24 9 13 1013.0 1012.9 0.0
22/06:00pm 24.7 23.8 19.1 71 3.6 E 22 30 12 16 1012.9 1012.8 0.0
22/05:30pm 25.2 24.6 18.9 68 4.0 E 20 32 11 17 1012.8 1012.7 0.0
22/05:00pm 25.1 23.5 18.3 66 4.3 E 24 33 13 18 1012.7 - 0.0
22/04:30pm 26.7 25.6 18.6 61 5.2 ENE 22 33 12 18 1012.6 1012.5 0.0
22/04:00pm 26.0 25.1 18.2 62 4.9 E 20 33 11 18 1012.5 - 0.0
22/03:30pm 27.0 25.5 18.6 60 5.4 E 24 32 13 17 1012.8 1012.7 0.0
22/03:00pm 26.7 25.2 18.6 61 5.2 E 24 35 13 19 1012.8 1012.7 0.0
22/02:30pm 26.6 24.6 16.5 54 6.2 ESE 22 33 12 18 1013.1 1013.0 0.0
22/02:00pm 27.7 25.9 16.9 51 6.7 E 22 33 12 18 1013.2 - 0.0
22/01:30pm 27.6 26.4 18.3 57 5.9 ESE 22 35 12 19 1013.6 1013.5 0.0
22/01:00pm 26.7 25.2 17.8 58 5.6 ESE 22 32 12 17 1014.2 - 0.0
22/12:30pm 26.6 25.3 18.2 60 5.3 E 22 33 12 18 1014.6 1014.5 0.0
22/12:00pm 26.6 25.3 18.2 60 5.3 E 22 35 12 19 1015.0 1014.9 0.0
22/11:30am 25.8 24.5 18.2 63 4.8 ESE 22 33 12 18 1015.3 1015.2 0.0
22/11:00am 25.9 23.7 17.8 61 5.1 E 26 35 14 19 1015.8 - 0.0
22/10:30am 26.1 24.9 18.5 63 4.8 ESE 22 33 12 18 1016.2 1016.1 0.0
22/10:00am 24.4 24.0 19.0 72 3.4 E 19 28 10 15 1016.4 - 0.0
22/09:30am 25.3 24.9 19.4 70 3.8 ESE 20 32 11 17 1016.5 1016.4 0.0
22/09:00am 25.3 24.8 19.2 69 3.9 E 20 28 11 15 1016.4 1016.3 0.0
22/08:30am 23.8 22.8 18.9 74 3.1 E 22 32 12 17 1016.2 1016.1 0.0
22/08:00am 23.2 23.5 19.6 80 2.3 ESE 17 28 9 15 1016.0 - 0.0
22/07:30am 22.1 22.8 19.6 86 1.6 E 15 24 8 13 1015.6 1015.5 0.0
22/07:00am 22.0 22.1 19.2 84 1.8 E 17 26 9 14 1015.2 - 0.0
22/06:30am 22.0 22.2 19.4 85 1.7 E 17 26 9 14 1015.0 1014.9 0.0
22/06:00am 22.3 21.9 19.3 83 1.9 E 20 30 11 16 1014.7 1014.6 0.0
22/05:30am 22.3 22.2 19.5 84 1.8 E 19 30 10 16 1014.4 1014.3 0.0
22/05:00am 22.5 22.2 19.5 83 1.9 ESE 20 30 11 16 1014.3 - 0.0
22/04:30am 22.8 22.4 19.4 81 2.2 ESE 20 30 11 16 1014.2 1014.1 0.0
22/04:00am 23.8 23.5 20.3 81 2.3 E 22 33 12 18 1014.1 - 0.0
22/03:30am 23.5 24.1 20.2 82 2.1 E 17 26 9 14 1014.1 1014.0 0.0
22/03:00am 23.4 24.1 20.5 84 1.9 E 17 24 9 13 1014.3 1014.2 0.0
22/02:30am 23.0 24.7 20.9 88 1.4 E 13 22 7 12 1014.5 1014.4 0.0
22/02:00am 21.7 23.9 20.3 92 0.9 E 9 11 5 6 1014.6 - 0.0
22/01:30am 20.2 22.2 18.7 91 0.9 E 6 6 3 3 1014.7 1014.6 0.0
22/01:00am 20.2 22.5 18.5 90 1.1 E 4 4 2 2 1014.7 - 0.0
22/12:30am 20.7 22.8 19.0 90 1.1 E 6 7 3 4 1015.0 1014.9 0.0
22/12:00am 20.4 22.7 18.5 89 1.2 E 4 6 2 3 1015.1 1015.0 0.0
 
Date/Time
CST
Temp
°C
App
Temp
°C
Dew
Point
Rel
Hum
%
Delta-T
°C
Wind Press
QNH
hPa
Press
MSL
hPa
Rain
since 9 am
mm
Dir
 
Spd
km/h
Gust
km/h
Spd
kts
Gust
kts
21/11:30pm 20.3 22.3 17.9 86 1.5 E 4 6 2 3 1015.1 1015.0 0.0
21/11:00pm 20.9 22.8 17.7 82 2.0 ENE 4 6 2 3 1015.1 - 0.0
21/10:30pm 22.4 24.7 19.4 83 1.9 ENE 6 7 3 4 1015.3 1015.2 0.0
21/10:00pm 22.9 24.8 19.7 82 2.1 ENE 9 11 5 6 1015.4 - 0.0
21/09:30pm 22.9 24.9 19.9 83 1.9 ENE 9 13 5 7 1015.6 1015.5 0.0
21/09:00pm 22.7 24.9 19.7 83 1.9 ENE 7 11 4 6 1015.5 1015.4 0.0
21/08:30pm 22.9 25.1 19.5 81 2.2 E 7 13 4 7 1015.2 1015.1 0.0
21/08:00pm 23.2 25.3 19.4 79 2.4 ENE 7 11 4 6 1014.9 - 0.0
21/07:30pm 23.6 24.8 19.1 76 2.9 ENE 11 19 6 10 1014.6 1014.5 0.0
21/07:00pm 23.8 24.8 18.7 73 3.2 ENE 11 15 6 8 1014.1 - 0.0
21/06:30pm 24.4 24.0 18.1 68 4.0 ENE 17 28 9 15 1013.7 1013.6 0.0
21/06:00pm 25.3 24.0 17.2 61 5.0 ENE 20 30 11 16 1013.3 1013.2 0.0
21/05:30pm 26.1 23.6 16.1 54 6.1 E 24 35 13 19 1013.0 1012.9 0.0
21/05:00pm 26.5 23.5 15.8 51 6.5 E 26 37 14 20 1012.8 - 0.0
21/04:30pm 27.1 24.0 15.5 49 7.1 E 26 35 14 19 1012.8 1012.7 0.0
21/04:00pm 27.7 24.7 14.7 45 7.8 E 24 32 13 17 1012.7 - 0.0
21/03:30pm 28.3 24.9 13.8 41 8.6 E 24 37 13 20 1012.8 1012.7 0.0
21/03:00pm 28.4 25.1 13.9 41 8.7 E 24 41 13 22 1013.0 1012.9 0.0
21/02:30pm 28.8 25.1 13.9 40 8.9 E 26 37 14 20 1013.3 1013.2 0.0
21/02:00pm 28.4 24.9 14.6 43 8.3 ESE 26 39 14 21 1013.7 - 0.0
21/01:30pm 28.4 26.0 15.3 45 8.0 E 22 35 12 19 1014.1 1014.0 0.0
21/01:00pm 27.7 25.0 15.7 48 7.4 ESE 24 32 13 17 1014.4 - 0.0
21/12:30pm 28.1 26.2 16.7 50 7.1 ESE 22 35 12 19 1014.8 1014.7 0.0
21/12:00pm 28.1 26.6 16.7 50 7.1 ESE 20 32 11 17 1015.2 1015.1 0.0
21/11:30am 27.6 27.3 18.3 57 5.9 E 17 28 9 15 1015.6 1015.5 0.0
21/11:00am 27.5 27.5 19.0 59 5.5 E 17 26 9 14 1015.9 - 0.0
21/10:30am 27.1 27.3 19.4 62 5.0 E 17 28 9 15 1015.9 1015.8 0.0
21/10:00am 26.4 27.0 19.5 66 4.5 E 15 26 8 14 1016.0 - 0.0
21/09:30am 25.6 25.8 19.3 68 4.0 ESE 17 24 9 13 1016.0 1015.9 0.0
21/09:00am 24.7 25.0 19.5 73 3.3 ESE 17 22 9 12 1016.0 1015.9 0.0
21/08:30am 23.8 25.2 19.5 77 2.8 ESE 11 17 6 9 1015.8 1015.7 0.0
21/08:00am 22.4 24.9 19.9 86 1.6 ESE 6 9 3 5 1015.7 - 0.0
21/07:30am 20.6 22.6 18.7 89 1.2 ESE 6 7 3 4 1015.5 1015.4 0.0
21/07:00am 20.7 22.6 18.5 87 1.4 SE 6 7 3 4 1015.3 - 0.0
21/06:30am 21.5 23.4 18.9 85 1.6 SE 7 9 4 5 1015.0 1014.9 0.0
21/06:00am 22.2 23.5 19.4 84 1.8 ESE 11 17 6 9 1014.7 1014.6 0.0
21/05:30am 22.7 23.3 19.5 82 2.0 ESE 15 24 8 13 1014.3 1014.2 0.0
21/05:00am 23.0 23.8 19.8 82 2.1 ESE 15 26 8 14 1014.0 - 0.0
21/04:30am 23.1 23.4 19.7 81 2.2 E 17 22 9 12 1014.0 1013.9 0.0
21/04:00am 23.3 23.6 19.7 80 2.3 E 17 28 9 15 1014.1 - 0.0
21/03:30am 23.7 23.7 19.8 79 2.5 E 19 28 10 15 1014.1 1014.0 0.0
21/03:00am 24.0 24.5 20.1 79 2.5 E 17 30 9 16 1014.1 1014.0 0.0
21/02:30am 23.9 24.9 21.0 84 1.9 E 17 26 9 14 1014.3 1014.2 0.0
21/02:00am 23.2 26.3 21.5 90 1.1 E 7 17 4 9 1014.6 - 0.0
21/01:30am 22.1 25.0 20.7 92 0.9 ENE 6 7 3 4 1014.7 1014.6 0.0
21/01:00am 21.7 24.4 20.3 92 0.9 ENE 6 7 3 4 1014.8 - 0.0
21/12:30am 21.1 23.3 19.7 92 0.9 E 7 7 4 4 1014.8 1014.7 0.0
21/12:00am 20.5 22.6 19.0 91 0.9 E 6 7 3 4 1014.8 1014.7 0.0
 
Date/Time
CST
Temp
°C
App
Temp
°C
Dew
Point
Rel
Hum
%
Delta-T
°C
Wind Press
QNH
hPa
Press
MSL
hPa
Rain
since 9 am
mm
Dir
 
Spd
km/h
Gust
km/h
Spd
kts
Gust
kts
20/11:30pm 20.2 22.5 18.5 90 1.1 E 4 6 2 3 1014.9 1014.8 0.0
20/11:00pm 20.4 22.2 18.3 88 1.3 ENE 6 6 3 3 1014.9 - 0.0
20/10:30pm 21.0 23.2 19.1 89 1.2 ENE 6 6 3 3 1015.0 1014.9 0.0
20/10:00pm 21.0 23.5 19.1 89 1.2 E 4 6 2 3 1014.8 - 0.0
20/09:30pm 20.7 22.9 18.3 86 1.5 E 4 4 2 2 1014.8 1014.7 0.0
20/09:00pm 21.2 23.3 18.2 83 1.9 ENE 4 6 2 3 1014.6 1014.5 0.0
20/08:30pm 22.0 24.2 19.2 84 1.8 ENE 6 7 3 4 1014.3 1014.2 0.0
20/08:00pm 22.2 24.7 19.0 82 2.0 NE 4 4 2 2 1014.1 - 0.0
20/07:30pm 22.8 25.4 19.2 80 2.3 ENE 4 6 2 3 1013.9 1013.8 0.0
20/07:00pm 23.3 25.7 18.8 76 2.8 ENE 4 7 2 4 1013.5 - 0.0
20/06:30pm 24.0 24.8 19.1 74 3.1 E 13 17 7 9 1013.1 1013.0 0.0
20/06:00pm 25.0 25.4 18.9 69 3.9 E 15 22 8 12 1012.9 1012.8 0.0
20/05:30pm 26.0 26.1 18.4 63 4.8 E 15 22 8 12 1012.8 1012.7 0.0
20/05:00pm 26.6 25.4 17.1 56 5.9 E 19 24 10 13 1012.6 - 0.0
20/04:30pm 27.0 25.6 16.9 54 6.3 E 20 26 11 14 1012.7 1012.6 0.0
20/04:00pm 27.2 25.5 17.1 54 6.3 E 22 32 12 17 1012.6 - 0.0
20/03:30pm 27.6 24.9 15.6 48 7.3 E 24 33 13 18 1012.8 1012.7 0.0
20/03:00pm 28.6 27.7 17.8 52 6.9 E 19 30 10 16 1012.9 1012.8 0.0
20/02:30pm 28.7 27.3 16.6 48 7.5 E 19 28 10 15 1013.3 1013.2 0.0
20/02:00pm 28.5 26.7 16.1 47 7.7 E 20 28 11 15 1013.7 - 0.0
20/01:30pm 29.1 27.7 16.6 46 7.8 ESE 19 30 10 16 1014.0 1013.9 0.0
20/01:00pm 28.4 27.7 17.3 51 7.0 E 17 26 9 14 1014.4 - 0.0
20/12:30pm 28.3 27.4 17.8 53 6.7 ESE 19 26 10 14 1014.8 1014.7 0.0
20/12:00pm 28.3 27.7 18.4 55 6.3 ESE 19 28 10 15 1015.2 1015.1 0.0
20/11:30am 28.0 27.4 18.4 56 6.1 E 19 30 10 16 1015.5 1015.4 0.0
20/11:00am 27.5 26.8 18.2 57 5.9 E 19 24 10 13 1015.9 - 0.0
20/10:30am 26.9 25.8 17.7 57 5.8 E 20 26 11 14 1016.4 1016.3 0.0
20/10:00am 26.6 25.9 17.4 57 5.8 E 17 26 9 14 1016.5 - 0.0
20/09:30am 26.1 25.0 17.7 60 5.3 E 20 28 11 15 1016.7 1016.6 0.0
20/09:00am 25.1 24.3 18.1 65 4.4 ESE 19 28 10 15 1016.7 1016.6 0.0
20/08:30am 24.2 24.0 18.6 71 3.5 ESE 17 22 9 12 1016.4 1016.3 0.0
20/08:00am 22.8 24.2 18.6 77 2.6 E 9 13 5 7 1016.1 - 0.0
20/07:30am 21.0 22.5 18.0 83 1.9 ESE 7 11 4 6 1015.8 1015.7 0.0
20/07:00am 20.6 21.8 17.4 82 2.0 ESE 7 9 4 5 1015.3 - 0.0
20/06:30am 21.3 22.4 17.9 81 2.1 ESE 9 13 5 7 1015.0 1014.9 0.0
20/06:00am 21.8 22.6 18.2 80 2.2 ESE 11 20 6 11 1014.6 1014.5 0.0
20/05:30am 21.9 22.9 18.7 82 2.0 ESE 11 17 6 9 1014.2 1014.1 0.0
20/05:00am 22.2 23.1 19.2 83 1.9 E 13 19 7 10 1014.1 - 0.0
20/04:30am 22.5 23.9 19.5 83 1.9 ESE 11 17 6 9 1014.0 1013.9 0.0
20/04:00am 22.4 23.5 19.6 84 1.8 E 13 17 7 9 1013.6 - 0.0
20/03:30am 22.5 23.6 19.7 84 1.8 E 13 19 7 10 1013.5 1013.4 0.0
20/03:00am 22.0 23.6 19.9 88 1.3 E 11 19 6 10 1013.6 1013.5 0.0
20/02:30am 21.6 23.6 19.9 90 1.1 E 9 11 5 6 1013.7 1013.6 0.0
20/02:00am 21.6 23.9 19.9 90 1.1 E 7 9 4 5 1013.8 - 0.0
20/01:30am 21.4 23.7 19.9 91 1.0 E 7 7 4 4 1013.9 1013.8 0.0
20/01:00am 21.6 23.9 19.9 90 1.1 E 7 9 4 5 1013.8 - 0.0
20/12:30am 21.9 24.3 20.0 89 1.2 ENE 7 9 4 5 1014.0 1013.9 0.0
20/12:00am 22.0 24.4 20.1 89 1.2 ENE 7 9 4 5 1014.0 1013.9 0.0
 
Date/Time
CST
Temp
°C
App
Temp
°C
Dew
Point
Rel
Hum
%
Delta-T
°C
Wind Press
QNH
hPa
Press
MSL
hPa
Rain
since 9 am
mm
Dir
 
Spd
km/h
Gust
km/h
Spd
kts
Gust
kts
19/11:30pm 22.2 24.6 20.1 88 1.4 ENE 7 9 4 5 1014.1 1014.0 0.0
19/11:00pm 22.5 24.6 20.2 87 1.5 ENE 9 11 5 6 1014.1 - 0.0
19/10:30pm 22.6 24.6 19.9 85 1.7 E 9 11 5 6 1014.1 1014.0 0.0
19/10:00pm 22.6 24.9 19.8 84 1.8 ENE 7 9 4 5 1014.2 - 0.0
19/09:30pm 22.1 24.0 18.9 82 2.0 ENE 7 9 4 5 1014.1 1014.0 0.0
19/09:00pm 22.1 23.8 18.5 80 2.3 ENE 7 7 4 4 1014.0 1013.9 0.0
19/08:30pm 22.3 24.1 18.3 78 2.5 E 6 7 3 4 1013.7 1013.6 0.0
19/08:00pm 22.6 24.5 18.6 78 2.5 E 6 7 3 4 1013.5 - 0.0
19/07:30pm 23.2 25.5 18.5 75 3.0 ENE 4 6 2 3 1013.3 1013.2 0.0
19/07:00pm 23.9 25.7 18.8 73 3.2 ENE 7 9 4 5 1012.9 - 0.0

Other Formats:

Comma delimited format used in spreadsheet applications
http://www.bom.gov.au/fwo/IDD60801/IDD60801.94108.axf

JavaScript Object Notation format (JSON) in row-major order
http://www.bom.gov.au/fwo/IDD60801/IDD60801.94108.json